createdAt,value
2023-01-17T00:02:51.923Z,84.01
2023-01-17T00:05:43.132Z,84.30
2023-01-17T00:16:13.711Z,81.65
2023-01-17T00:19:04.863Z,81.59
2023-01-17T00:21:50.571Z,82.57
2023-01-17T00:24:41.645Z,81.59
2023-01-17T00:27:15.081Z,82.07
2023-01-17T00:29:42.084Z,82.17
2023-01-17T00:34:51.954Z,82.45
2023-01-17T00:39:58.779Z,83.47
2023-01-17T00:42:31.262Z,83.20
2023-01-17T00:48:11.097Z,82.67
2023-01-17T00:50:59.191Z,83.21
2023-01-17T00:53:44.982Z,83.73
2023-01-17T00:56:35.245Z,83.56
2023-01-17T00:59:26.771Z,83.01
2023-01-17T01:05:09.736Z,82.70
2023-01-17T01:07:58.441Z,82.71
2023-01-17T01:10:49.140Z,82.07
2023-01-17T01:13:38.125Z,82.65
2023-01-17T01:16:25.752Z,82.34
2023-01-17T01:19:12.249Z,82.59
2023-01-17T01:21:59.812Z,81.90
2023-01-17T01:24:54.983Z,81.02
2023-01-17T01:27:49.933Z,80.60
2023-01-17T01:30:37.063Z,81.20
2023-01-17T01:35:55.155Z,80.09
2023-01-17T01:43:52.087Z,77.86
2023-01-17T01:49:28.525Z,78.19
2023-01-17T01:52:24.566Z,77.82
2023-01-17T01:55:04.481Z,79.00
2023-01-17T01:57:45.727Z,78.07
2023-01-17T02:00:39.312Z,77.41
2023-01-17T02:05:47.501Z,77.97
2023-01-17T02:10:46.916Z,76.45
2023-01-17T02:16:03.305Z,75.86
2023-01-17T02:18:51.967Z,77.15
2023-01-17T02:21:37.780Z,77.62
2023-01-17T02:24:09.373Z,76.36
2023-01-17T02:27:07.078Z,76.49
2023-01-17T02:32:45.974Z,76.50
2023-01-17T02:35:56.346Z,76.39
2023-01-17T02:38:37.007Z,77.71
2023-01-17T02:41:07.991Z,75.87
2023-01-17T02:43:38.667Z,76.91
2023-01-17T02:46:11.727Z,78.37
2023-01-17T02:48:55.504Z,76.91
2023-01-17T02:55:08.140Z,77.03
2023-01-17T03:00:59.249Z,76.08
2023-01-17T03:03:55.369Z,76.62
2023-01-17T03:06:48.469Z,76.50
2023-01-17T03:09:25.990Z,74.80
2023-01-17T03:14:22.744Z,76.36
2023-01-17T03:16:53.120Z,76.40
2023-01-17T03:24:43.459Z,75.76
2023-01-17T03:29:45.238Z,75.57
2023-01-17T03:34:44.085Z,76.08
2023-01-17T03:39:40.910Z,75.68
2023-01-17T03:42:10.844Z,75.00
2023-01-17T03:44:37.915Z,74.73
2023-01-17T03:47:07.530Z,75.51
2023-01-17T03:49:34.572Z,75.27
2023-01-17T03:52:09.872Z,75.85
2023-01-17T03:54:41.847Z,75.46
2023-01-17T03:57:11.085Z,74.98
2023-01-17T03:59:41.894Z,76.13
2023-01-17T04:02:13.450Z,75.51
2023-01-17T04:04:45.483Z,75.96
2023-01-17T04:09:59.139Z,73.35
2023-01-17T04:12:41.685Z,75.45
2023-01-17T04:17:53.332Z,75.29
2023-01-17T04:20:40.714Z,75.50
2023-01-17T04:23:10.804Z,74.43
2023-01-17T04:25:38.361Z,74.61
2023-01-17T04:30:46.718Z,73.20
2023-01-17T04:33:28.115Z,74.10
2023-01-17T04:36:02.444Z,74.41
2023-01-17T04:38:29.521Z,72.98
2023-01-17T04:41:03.122Z,74.55
2023-01-17T04:43:30.297Z,74.42
2023-01-17T04:46:07.228Z,73.36
2023-01-17T04:48:37.380Z,74.47
2023-01-17T04:51:05.990Z,74.33
2023-01-17T04:53:48.102Z,75.01
2023-01-17T04:56:22.569Z,74.96
2023-01-17T04:58:49.635Z,75.54
2023-01-17T05:01:21.245Z,74.62
2023-01-17T05:03:55.421Z,75.96
2023-01-17T05:06:34.369Z,77.20
2023-01-17T05:09:07.194Z,77.81
2023-01-17T05:11:46.224Z,76.54
2023-01-17T05:14:18.434Z,76.51
2023-01-17T05:16:47.835Z,76.61
2023-01-17T05:19:22.096Z,76.62
2023-01-17T05:21:54.312Z,77.13
2023-01-17T05:24:26.652Z,76.78
2023-01-17T05:27:06.847Z,76.70
2023-01-17T05:29:36.616Z,76.41
2023-01-17T05:32:10.579Z,77.45
2023-01-17T05:34:41.235Z,77.37
2023-01-17T05:37:10.361Z,77.53
2023-01-17T05:39:52.824Z,77.41
2023-01-17T05:42:25.996Z,77.45
2023-01-17T05:47:27.718Z,78.18
2023-01-17T05:50:01.366Z,77.61
2023-01-17T05:52:44.984Z,79.74
2023-01-17T05:57:48.396Z,80.04
2023-01-17T06:00:16.868Z,83.19
2023-01-17T06:09:35.494Z,87.92
2023-01-17T06:14:49.111Z,88.12
2023-01-17T06:17:36.769Z,87.80
2023-01-17T06:20:08.390Z,88.47
2023-01-17T06:23:03.939Z,87.57
2023-01-17T06:25:44.505Z,87.98
2023-01-17T06:30:44.512Z,86.91
2023-01-17T06:33:31.612Z,87.47
2023-01-17T06:36:09.719Z,86.88
2023-01-17T06:42:44.777Z,85.26
2023-01-17T06:48:03.269Z,84.80
2023-01-17T06:50:33.935Z,84.34
2023-01-17T06:53:07.416Z,84.18
2023-01-17T06:55:47.112Z,83.18
2023-01-17T07:00:45.194Z,82.55
2023-01-17T07:03:27.698Z,82.22
2023-01-17T07:05:55.525Z,81.99
2023-01-17T07:08:38.752Z,82.48
2023-01-17T07:11:31.242Z,82.13
2023-01-17T07:13:59.468Z,83.04
2023-01-17T07:16:31.689Z,82.65
2023-01-17T07:32:40.712Z,83.35
2023-01-17T09:54:57.851Z,75.61
2023-01-17T09:57:34.891Z,74.83
2023-01-17T10:00:29.031Z,75.07
2023-01-17T10:03:35.476Z,75.20
2023-01-17T10:06:47.541Z,75.08
2023-01-17T10:09:40.361Z,74.18
2023-01-17T10:12:58.262Z,74.27
2023-01-17T10:16:25.540Z,74.68
2023-01-17T10:19:36.074Z,74.01
2023-01-17T10:23:02.258Z,74.15
2023-01-17T10:25:55.729Z,74.29
2023-01-17T10:28:54.250Z,73.44
2023-01-17T10:31:32.208Z,72.99
2023-01-17T10:34:38.266Z,72.52
2023-01-17T10:37:41.880Z,71.53
2023-01-17T10:43:29.085Z,71.06
2023-01-17T10:46:36.374Z,70.19
2023-01-17T10:50:07.536Z,71.40
2023-01-17T10:58:12.386Z,69.57
2023-01-17T11:02:08.461Z,67.96
2023-01-17T11:13:53.169Z,68.96
2023-01-17T11:16:40.971Z,69.65
2023-01-17T11:19:31.656Z,70.07
2023-01-17T11:37:29.405Z,69.30
2023-01-17T11:40:39.619Z,67.76
2023-01-17T11:55:45.311Z,69.76
2023-01-17T12:02:41.155Z,69.28
2023-01-17T12:05:56.412Z,68.04
2023-01-17T12:13:56.136Z,68.88
2023-01-17T12:16:56.616Z,68.82
2023-01-17T12:19:43.568Z,68.70
2023-01-17T12:22:56.340Z,66.17
2023-01-17T12:26:34.015Z,66.21
2023-01-17T12:31:51.214Z,63.91
2023-01-17T12:35:03.281Z,66.94
2023-01-17T12:37:37.530Z,62.34
2023-01-17T13:12:21.285Z,57.50
2023-01-17T13:18:16.942Z,56.05
2023-01-17T13:29:19.885Z,54.89
2023-01-17T13:35:09.483Z,54.22
2023-01-17T13:37:50.126Z,57.38
2023-01-17T13:40:50.682Z,55.12
2023-01-17T13:48:16.451Z,55.49
2023-01-17T13:50:58.443Z,57.23
2023-01-17T14:00:52.004Z,56.42
2023-01-17T14:04:06.943Z,56.30
2023-01-17T14:07:02.023Z,55.20
2023-01-17T14:10:12.447Z,56.83
2023-01-17T14:12:51.417Z,55.05
2023-01-17T14:15:36.026Z,55.59
2023-01-17T14:18:10.658Z,55.66
2023-01-17T14:20:50.127Z,56.17
2023-01-17T14:23:38.403Z,55.35
2023-01-17T14:26:37.644Z,55.00
2023-01-17T14:29:50.199Z,55.42
2023-01-17T14:33:05.973Z,55.31
2023-01-17T14:35:57.449Z,55.67
2023-01-17T14:38:28.860Z,56.98
2023-01-17T14:41:09.121Z,56.83
2023-01-17T14:44:21.573Z,57.18
2023-01-17T14:47:00.334Z,56.08
2023-01-17T14:49:27.498Z,57.13
2023-01-17T14:52:02.362Z,56.56
2023-01-17T14:54:33.692Z,57.04
2023-01-17T14:58:02.693Z,58.07
2023-01-17T15:00:42.191Z,56.39
2023-01-17T15:05:51.965Z,55.77
2023-01-17T15:12:00.995Z,57.13
2023-01-17T15:15:01.748Z,57.45
2023-01-17T15:24:44.598Z,56.91
2023-01-17T15:27:20.109Z,57.68
2023-01-17T15:29:47.958Z,57.80
2023-01-17T15:33:00.523Z,56.89
2023-01-17T15:35:39.051Z,57.45
2023-01-17T15:38:07.265Z,57.22
2023-01-17T15:47:40.808Z,58.66
2023-01-17T15:50:20.013Z,59.46
2023-01-17T15:52:53.160Z,59.14
2023-01-17T15:55:48.674Z,59.77
2023-01-17T16:00:56.942Z,59.49
2023-01-17T16:06:35.763Z,59.88
2023-01-17T16:09:04.809Z,60.58
2023-01-17T16:12:00.864Z,60.25
2023-01-17T16:15:19.496Z,60.41
2023-01-17T16:18:26.063Z,59.88
2023-01-17T16:21:15.003Z,60.19
2023-01-17T16:23:47.970Z,60.12
2023-01-17T16:30:22.341Z,60.04
2023-01-17T16:32:55.459Z,60.58
2023-01-17T16:35:44.279Z,60.75
2023-01-17T16:38:16.166Z,61.09
2023-01-17T16:40:46.832Z,60.84
2023-01-17T16:43:28.581Z,61.21
2023-01-17T16:46:24.504Z,60.97
2023-01-17T16:48:58.292Z,61.73
2023-01-17T16:51:43.667Z,61.56
2023-01-17T16:54:30.695Z,61.76
2023-01-17T16:57:01.026Z,61.53
2023-01-17T17:04:07.995Z,61.89
2023-01-17T17:25:23.128Z,62.96
2023-01-17T17:28:11.739Z,62.64
2023-01-17T17:33:21.402Z,62.95
2023-01-17T17:35:56.601Z,63.65
2023-01-17T17:42:15.586Z,64.17
2023-01-17T17:44:55.633Z,64.25
2023-01-17T17:47:50.321Z,64.16
2023-01-17T17:50:17.486Z,64.18
2023-01-17T18:00:00.192Z,64.27
2023-01-17T18:02:30.070Z,64.87
2023-01-17T18:04:57.313Z,64.93
2023-01-17T18:07:27.301Z,64.25
2023-01-17T18:09:57.242Z,64.65
2023-01-17T18:12:25.828Z,64.84
2023-01-17T18:14:52.711Z,64.99
2023-01-17T18:17:20.405Z,65.43
2023-01-17T18:19:47.424Z,65.46
2023-01-17T18:22:18.819Z,65.03
2023-01-17T18:27:35.519Z,65.31
2023-01-17T18:30:03.771Z,65.33
2023-01-17T18:32:42.829Z,65.45
2023-01-17T18:35:17.436Z,65.45
2023-01-17T18:40:16.711Z,65.83
2023-01-17T18:45:13.568Z,65.81
2023-01-17T18:50:07.346Z,65.69
2023-01-17T18:55:09.930Z,65.69
2023-01-17T19:00:07.516Z,65.81
2023-01-17T19:02:34.676Z,66.14
2023-01-17T19:05:05.534Z,66.15
2023-01-17T19:07:35.009Z,66.03
2023-01-17T19:10:02.173Z,66.48
2023-01-17T19:12:35.411Z,66.73
2023-01-17T19:15:02.393Z,66.70
2023-01-17T19:17:29.284Z,66.74
2023-01-17T19:20:01.512Z,66.53
2023-01-17T19:22:28.593Z,66.78
2023-01-17T19:24:55.623Z,66.50
2023-01-17T19:27:26.377Z,66.72
2023-01-17T19:29:53.445Z,66.29
2023-01-17T19:32:20.370Z,66.25
2023-01-17T19:34:47.176Z,66.03
2023-01-17T19:37:14.268Z,66.27
2023-01-17T19:39:41.158Z,66.43
2023-01-17T19:42:17.427Z,66.36
2023-01-17T19:44:46.559Z,67.75
2023-01-17T19:47:13.406Z,68.63
2023-01-17T19:49:42.688Z,68.39
2023-01-17T19:52:18.229Z,68.47
2023-01-17T19:54:45.115Z,69.03
2023-01-17T19:57:14.873Z,69.36
2023-01-17T20:02:09.883Z,69.38
2023-01-17T20:04:36.787Z,68.76
2023-01-17T20:07:05.875Z,69.29
2023-01-17T20:09:42.378Z,68.11
2023-01-17T20:12:14.780Z,68.21
2023-01-17T20:14:44.765Z,68.62
2023-01-17T20:17:13.589Z,68.31
2023-01-17T20:19:42.547Z,68.50
2023-01-17T20:22:09.614Z,68.45
2023-01-17T20:27:05.917Z,68.46
2023-01-17T20:32:11.439Z,68.88
2023-01-17T20:34:38.270Z,68.53
2023-01-17T20:37:05.208Z,68.52
2023-01-17T20:39:35.596Z,68.63
2023-01-17T20:42:04.026Z,68.90
2023-01-17T20:44:36.629Z,68.90
2023-01-17T20:47:09.920Z,68.88
2023-01-17T20:49:37.092Z,68.69
2023-01-17T20:52:06.574Z,68.71
2023-01-17T20:57:09.710Z,68.84
2023-01-17T20:59:49.783Z,69.22
2023-01-17T21:02:17.098Z,68.85
2023-01-17T21:04:48.051Z,69.13
2023-01-17T21:07:14.950Z,69.02
2023-01-17T21:09:43.053Z,69.08
2023-01-17T21:12:11.232Z,68.40
2023-01-17T21:17:07.887Z,70.15
2023-01-17T21:22:07.987Z,69.08
2023-01-17T21:24:46.576Z,69.28
2023-01-17T21:27:24.516Z,69.60
2023-01-17T21:29:57.234Z,69.71
2023-01-17T21:32:29.192Z,70.23
2023-01-17T21:34:56.198Z,71.52
2023-01-17T21:37:23.165Z,71.93
2023-01-17T21:39:54.783Z,71.06
2023-01-17T21:42:25.381Z,70.45
2023-01-17T21:45:06.410Z,72.36
2023-01-17T21:47:35.911Z,70.94
2023-01-17T21:50:03.020Z,70.29
2023-01-17T21:52:31.655Z,72.54
2023-01-17T21:55:16.876Z,71.16
2023-01-17T21:58:02.397Z,70.80
2023-01-17T22:00:32.689Z,70.76
2023-01-17T22:03:02.298Z,71.76
2023-01-17T22:05:29.307Z,71.16
2023-01-17T22:08:20.704Z,72.81
2023-01-17T22:10:49.462Z,71.58
2023-01-17T22:13:20.551Z,71.08
2023-01-17T22:16:01.571Z,71.00
2023-01-17T22:18:33.260Z,70.67
2023-01-17T22:23:32.691Z,70.78
2023-01-17T22:26:05.282Z,71.83
2023-01-17T22:28:34.896Z,71.66
2023-01-17T22:33:58.171Z,71.17
2023-01-17T22:44:05.534Z,71.31
2023-01-17T22:49:07.708Z,71.09
2023-01-17T22:54:04.372Z,70.98
2023-01-17T22:56:35.347Z,72.52
2023-01-17T22:59:08.071Z,72.59
2023-01-17T23:01:36.307Z,72.96
2023-01-17T23:09:11.304Z,71.86
2023-01-17T23:14:23.911Z,71.34
2023-01-17T23:17:16.685Z,71.17
2023-01-17T23:19:44.390Z,71.02
2023-01-17T23:22:16.452Z,71.36
2023-01-17T23:24:52.148Z,70.88
2023-01-17T23:30:16.743Z,71.34
2023-01-17T23:35:18.295Z,71.21
2023-01-17T23:38:03.643Z,71.67
2023-01-17T23:40:34.922Z,71.44
2023-01-17T23:43:20.891Z,71.12
2023-01-17T23:45:53.947Z,71.54
2023-01-17T23:48:24.713Z,71.13
2023-01-17T23:51:00.626Z,73.22
2023-01-17T23:53:28.144Z,73.21
2023-01-17T23:58:27.861Z,72.97
